Time;durP1;ratioP1;P1;durP2;ratioP2;P2;SDS_P1;SDS_P2;PMS_P1;PMS_P2;Temp;Humidity;BMP_temperature;BMP_pressure;BME280_temperature;BME280_humidity;BME280_pressure;Samples;Min_cycle;Max_cycle;Signal;HPM_P1;HPM_P2
2022/06/01 00:01:32;;;;;;;2.88;1.00;;;21.20;44.90;;;;;;5092859;28;20073;-55
2022/06/01 00:03:57;;;;;;;2.50;0.88;;;21.20;44.30;;;;;;5093966;28;20416;-55
2022/06/01 00:06:23;;;;;;;1.75;0.82;;;21.20;44.20;;;;;;5093916;28;20038;-56
2022/06/01 00:08:50;;;;;;;1.55;0.88;;;21.20;44.20;;;;;;5092393;28;20024;-52
2022/06/01 00:11:16;;;;;;;1.35;0.82;;;21.10;44.10;;;;;;5093103;28;20036;-55
2022/06/01 00:13:42;;;;;;;2.33;0.88;;;21.10;44.10;;;;;;5093341;28;20024;-55
2022/06/01 00:16:08;;;;;;;1.35;0.80;;;21.20;44.20;;;;;;5076063;28;20024;-55
2022/06/01 00:18:34;;;;;;;1.10;0.75;;;21.10;44.10;;;;;;5093841;28;20008;-54
2022/06/01 00:21:01;;;;;;;2.92;1.10;;;21.10;44.10;;;;;;5093862;28;20019;-54
2022/06/01 00:23:26;;;;;;;1.00;0.60;;;21.10;44.10;;;;;;5093485;28;20051;-55
2022/06/01 00:25:52;;;;;;;1.48;0.88;;;21.10;44.00;;;;;;5093690;28;20528;-54
2022/06/01 00:28:18;;;;;;;2.03;1.00;;;21.10;44.00;;;;;;5094006;28;20062;-55
2022/06/01 00:30:44;;;;;;;1.85;0.93;;;21.10;44.10;;;;;;5094531;28;20020;-55
2022/06/01 00:33:09;;;;;;;1.45;0.77;;;21.10;44.00;;;;;;5094610;28;20157;-55
2022/06/01 00:35:35;;;;;;;1.42;0.80;;;21.10;44.00;;;;;;5094558;28;20032;-57
2022/06/01 00:38:01;;;;;;;0.88;0.80;;;21.10;44.60;;;;;;5093343;28;20463;-54
2022/06/01 00:40:28;;;;;;;0.88;0.73;;;21.10;44.00;;;;;;5093560;28;20016;-54
2022/06/01 00:42:57;;;;;;;2.33;0.95;;;21.10;43.90;;;;;;5093703;28;20012;-57
2022/06/01 00:45:23;;;;;;;1.90;1.00;;;21.10;44.00;;;;;;5094056;28;20012;-58
2022/06/01 00:47:50;;;;;;;1.58;0.80;;;21.10;44.00;;;;;;5093524;28;20020;-55
2022/06/01 00:50:25;;;;;;;1.25;0.68;;;21.10;43.90;;;;;;5094454;28;20020;-57
2022/06/01 00:52:56;;;;;;;1.52;0.70;;;21.10;43.90;;;;;;5092957;28;20489;-57
2022/06/01 00:55:47;;;;;;;2.47;0.95;;;21.00;44.40;;;;;;5092373;28;20020;-57
2022/06/01 00:58:14;;;;;;;2.88;0.80;;;21.10;43.90;;;;;;5093561;28;20053;-57
2022/06/01 01:00:41;;;;;;;1.20;0.70;;;21.00;43.80;;;;;;5093145;28;20023;-57
2022/06/01 01:03:10;;;;;;;0.70;0.55;;;21.00;43.80;;;;;;5093650;28;20069;-55
2022/06/01 01:05:43;;;;;;;1.50;0.85;;;21.00;43.80;;;;;;5093171;28;20012;-54
2022/06/01 01:08:09;;;;;;;1.05;0.60;;;21.00;43.80;;;;;;5093487;28;20105;-56
2022/06/01 01:10:35;;;;;;;1.38;0.77;;;21.00;43.80;;;;;;5075354;28;20032;-57
2022/06/01 01:13:04;;;;;;;1.05;0.80;;;21.00;43.80;;;;;;5092420;28;20028;-54
2022/06/01 01:15:43;;;;;;;1.60;1.10;;;21.00;43.80;;;;;;5093615;28;20037;-54
2022/06/01 01:18:12;;;;;;;0.75;0.50;;;21.00;43.80;;;;;;5093511;28;20016;-53
2022/06/01 01:20:44;;;;;;;1.33;0.77;;;21.00;43.80;;;;;;5092630;28;20044;-49
2022/06/01 01:23:14;;;;;;;4.88;1.05;;;21.00;43.80;;;;;;5093455;28;20066;-52
2022/06/01 01:25:40;;;;;;;3.17;0.90;;;21.00;43.70;;;;;;5091706;28;20016;-54
2022/06/01 01:28:06;;;;;;;1.40;0.70;;;21.00;43.80;;;;;;5091490;28;20013;-53
2022/06/01 01:30:37;;;;;;;2.38;0.55;;;21.00;43.80;;;;;;5092901;28;20016;-52
2022/06/01 01:33:09;;;;;;;3.28;0.88;;;21.00;43.80;;;;;;5092905;28;20023;-51
2022/06/01 01:35:35;;;;;;;1.17;0.75;;;20.90;44.30;;;;;;5092440;28;20111;-49
2022/06/01 01:38:03;;;;;;;1.98;0.82;;;21.00;43.70;;;;;;5091354;28;20107;-50
2022/06/01 01:40:31;;;;;;;2.10;0.68;;;20.90;44.30;;;;;;5091320;28;20095;-54
2022/06/01 01:42:57;;;;;;;1.83;0.77;;;20.90;43.70;;;;;;5092750;28;20016;-49
2022/06/01 01:45:25;;;;;;;1.08;0.68;;;21.00;43.80;;;;;;5092422;28;20016;-48
2022/06/01 01:47:51;;;;;;;3.38;0.82;;;20.90;43.70;;;;;;5092689;28;20020;-52
2022/06/01 01:50:18;;;;;;;2.20;1.00;;;20.90;43.70;;;;;;5092652;28;20020;-49
2022/06/01 01:52:44;;;;;;;1.00;0.75;;;20.90;43.70;;;;;;5091520;28;20016;-52
2022/06/01 01:55:29;;;;;;;1.88;0.98;;;20.90;43.70;;;;;;5090984;28;20039;-51
2022/06/01 01:58:02;;;;;;;3.05;0.90;;;20.90;43.70;;;;;;5093530;28;20019;-50
2022/06/01 02:00:30;;;;;;;1.10;0.80;;;20.90;43.60;;;;;;5096194;28;20497;-52
2022/06/01 02:03:27;;;;;;;2.78;1.08;;;20.90;43.60;;;;;;5077892;28;20005;-51
2022/06/01 02:06:04;;;;;;;1.55;0.70;;;20.90;43.70;;;;;;5096017;28;20116;-49
2022/06/01 02:08:38;;;;;;;1.75;0.80;;;20.90;44.20;;;;;;5096092;28;20475;-52
2022/06/01 02:14:19;;;;;;;1.55;0.95;;;20.90;43.70;;;;;;5096513;28;20138;-54
2022/06/01 02:16:47;;;;;;;1.50;0.80;;;20.90;43.70;;;;;;5096148;28;20028;-51
2022/06/01 02:19:17;;;;;;;1.42;0.73;;;20.90;43.70;;;;;;5095838;28;20012;-52
2022/06/01 02:21:43;;;;;;;1.30;0.70;;;20.90;43.70;;;;;;5077667;28;20016;-52
2022/06/01 02:24:09;;;;;;;2.22;0.93;;;20.90;43.70;;;;;;5094328;28;20509;-50
2022/06/01 02:26:35;;;;;;;1.25;0.68;;;20.90;43.70;;;;;;5095757;28;20512;-51
2022/06/01 02:29:11;;;;;;;1.60;0.90;;;20.90;43.70;;;;;;5094909;28;20473;-50
2022/06/01 02:31:38;;;;;;;2.13;0.80;;;20.90;43.70;;;;;;5094487;28;20030;-49
2022/06/01 02:34:04;;;;;;;2.75;0.82;;;20.90;43.70;;;;;;5094402;28;20531;-50
2022/06/01 02:36:30;;;;;;;0.65;0.57;;;20.90;43.80;;;;;;5077301;28;20024;-54
2022/06/01 02:38:56;;;;;;;2.92;1.08;;;20.90;43.70;;;;;;5094700;28;20008;-57
2022/06/01 02:44:06;;;;;;;1.25;0.70;;;20.90;43.80;;;;;;5095576;28;20433;-58
2022/06/01 02:46:32;;;;;;;2.33;0.55;;;20.90;43.80;;;;;;5095539;28;20103;-58
2022/06/01 02:49:00;;;;;;;0.90;0.60;;;20.90;43.80;;;;;;5095888;28;20008;-58
2022/06/01 02:51:26;;;;;;;0.90;0.68;;;20.80;43.80;;;;;;5096443;28;20066;-59
2022/06/01 02:53:52;;;;;;;1.42;0.65;;;20.80;43.80;;;;;;5095926;28;20024;-57
2022/06/01 02:56:18;;;;;;;2.17;0.90;;;20.90;43.80;;;;;;5095122;28;20530;-58
2022/06/01 02:58:43;;;;;;;1.70;0.90;;;20.90;43.80;;;;;;5095441;28;20016;-59
2022/06/01 03:01:09;;;;;;;1.13;0.68;;;20.80;44.30;;;;;;5095536;28;20065;-60
2022/06/01 03:03:35;;;;;;;1.65;0.80;;;20.80;43.80;;;;;;5095505;28;20017;-60
2022/06/01 03:06:01;;;;;;;1.92;0.82;;;20.80;43.80;;;;;;5093911;28;20084;-60
2022/06/01 03:08:27;;;;;;;1.08;0.80;;;20.80;43.80;;;;;;5095080;28;20437;-60
2022/06/01 03:10:53;;;;;;;1.65;0.73;;;20.80;43.80;;;;;;5092955;28;20027;-60
2022/06/01 03:13:22;;;;;;;2.20;0.80;;;20.80;43.90;;;;;;5093836;28;20051;-60
2022/06/01 03:15:49;;;;;;;1.00;0.70;;;20.80;43.80;;;;;;5095151;28;20028;-60
2022/06/01 03:18:15;;;;;;;1.02;0.70;;;20.80;43.80;;;;;;5095082;28;20083;-60
2022/06/01 03:20:41;;;;;;;3.55;0.98;;;20.80;43.90;;;;;;5076743;28;20050;-59
2022/06/01 03:23:07;;;;;;;1.67;0.77;;;20.80;43.90;;;;;;5094743;28;20044;-59
2022/06/01 03:25:34;;;;;;;1.08;0.82;;;20.80;43.90;;;;;;5094864;28;20103;-59
2022/06/01 03:27:59;;;;;;;1.77;0.80;;;20.80;43.90;;;;;;5094785;28;20020;-59
2022/06/01 03:30:25;;;;;;;1.92;0.93;;;20.80;43.90;;;;;;5094688;28;20420;-59
2022/06/01 03:32:51;;;;;;;2.33;0.88;;;20.80;43.90;;;;;;5094521;28;20540;-58
2022/06/01 03:35:19;;;;;;;1.52;0.70;;;20.80;43.90;;;;;;5094346;28;20738;-59
2022/06/01 03:37:45;;;;;;;1.90;0.80;;;20.80;43.90;;;;;;5094796;28;20042;-59
2022/06/01 03:40:14;;;;;;;1.83;0.73;;;20.70;43.90;;;;;;5093082;28;20043;-59
2022/06/01 03:42:40;;;;;;;1.30;0.80;;;20.80;43.90;;;;;;5094578;28;20005;-58
2022/06/01 03:47:50;;;;;;;5.45;1.00;;;20.70;43.90;;;;;;5078953;28;20043;-59
2022/06/01 03:50:17;;;;;;;2.72;0.88;;;20.80;43.90;;;;;;5094485;28;20004;-59
2022/06/01 03:52:45;;;;;;;2.00;0.85;;;20.70;43.90;;;;;;5095028;28;20069;-59
2022/06/01 03:55:11;;;;;;;1.25;0.80;;;20.70;43.90;;;;;;5093385;28;20035;-58
2022/06/01 03:57:37;;;;;;;1.38;0.77;;;20.70;43.90;;;;;;5095855;28;20016;-59
2022/06/01 04:00:07;;;;;;;1.80;0.90;;;20.70;43.90;;;;;;5096072;28;20016;-59
2022/06/01 04:02:33;;;;;;;1.73;0.77;;;20.70;43.90;;;;;;5094262;28;20008;-59
2022/06/01 04:04:58;;;;;;;3.42;0.90;;;20.70;44.00;;;;;;5093016;28;20019;-59
2022/06/01 04:07:25;;;;;;;2.08;0.77;;;20.70;43.90;;;;;;5095361;28;20021;-59
2022/06/01 04:09:51;;;;;;;2.08;1.13;;;20.70;43.90;;;;;;5094466;28;20012;-59
2022/06/01 04:12:18;;;;;;;1.75;0.70;;;20.70;43.90;;;;;;5093671;28;20069;-59
2022/06/01 04:14:43;;;;;;;2.70;0.88;;;20.70;44.00;;;;;;5093429;28;20016;-59
2022/06/01 04:17:09;;;;;;;3.70;0.75;;;20.70;44.00;;;;;;5093146;28;20023;-58
2022/06/01 04:19:35;;;;;;;1.13;0.57;;;20.70;44.00;;;;;;5095243;28;20020;-60
2022/06/01 04:22:01;;;;;;;3.83;0.90;;;20.70;44.00;;;;;;5092609;28;20016;-59
2022/06/01 04:24:28;;;;;;;3.53;1.13;;;20.70;43.90;;;;;;5075888;28;20016;-59
2022/06/01 04:26:54;;;;;;;1.52;0.75;;;20.70;44.00;;;;;;5093935;28;20042;-58
2022/06/01 04:29:19;;;;;;;2.10;0.80;;;20.70;43.90;;;;;;5094150;28;20024;-60
2022/06/01 04:31:45;;;;;;;2.80;1.05;;;20.70;43.90;;;;;;5092295;28;20475;-59
2022/06/01 04:34:10;;;;;;;1.75;0.73;;;20.70;43.90;;;;;;5093493;28;20023;-59
2022/06/01 04:36:36;;;;;;;1.65;0.80;;;20.70;43.90;;;;;;5093739;28;20028;-59
2022/06/01 04:39:03;;;;;;;1.33;0.80;;;20.70;43.90;;;;;;5093309;28;20020;-59
2022/06/01 04:41:28;;;;;;;3.58;1.02;;;20.70;43.90;;;;;;5093175;28;20047;-60
2022/06/01 04:43:54;;;;;;;1.98;0.90;;;20.70;43.90;;;;;;5094406;28;20036;-60
2022/06/01 04:46:20;;;;;;;1.50;0.75;;;20.70;43.90;;;;;;5094330;28;20048;-59
2022/06/01 04:48:46;;;;;;;1.60;0.80;;;20.70;43.90;;;;;;5094383;28;20028;-60
2022/06/01 04:51:12;;;;;;;1.52;0.90;;;20.70;43.90;;;;;;5094301;28;20551;-60
2022/06/01 04:53:37;;;;;;;0.98;0.70;;;20.70;43.90;;;;;;5094134;28;20027;-60
2022/06/01 04:56:03;;;;;;;2.85;0.80;;;20.70;43.90;;;;;;5076685;28;20383;-59
2022/06/01 04:58:30;;;;;;;2.28;0.80;;;20.70;44.00;;;;;;5094222;28;20024;-60
2022/06/01 05:00:56;;;;;;;3.00;0.85;;;20.70;44.00;;;;;;5092792;28;20523;-59
2022/06/01 05:03:21;;;;;;;1.30;0.80;;;20.70;44.00;;;;;;5077423;28;20012;-60
2022/06/01 05:05:48;;;;;;;1.40;0.68;;;20.70;44.10;;;;;;5094647;28;20020;-59
2022/06/01 05:08:14;;;;;;;2.00;0.90;;;20.60;44.10;;;;;;5094017;28;20054;-60
2022/06/01 05:10:41;;;;;;;2.08;0.90;;;20.60;44.10;;;;;;5094768;28;20539;-60
2022/06/01 05:13:07;;;;;;;1.63;0.80;;;20.60;44.00;;;;;;5094616;28;20008;-60
2022/06/01 05:15:33;;;;;;;2.40;0.90;;;20.60;44.00;;;;;;5093878;28;20479;-59
2022/06/01 05:17:59;;;;;;;4.10;0.80;;;20.60;44.10;;;;;;5093896;28;20027;-59
2022/06/01 05:20:26;;;;;;;2.00;0.88;;;20.60;44.00;;;;;;5093071;28;20043;-59
2022/06/01 05:22:51;;;;;;;3.00;0.90;;;20.60;44.00;;;;;;5092948;28;20070;-59
2022/06/01 05:25:17;;;;;;;1.75;0.90;;;20.70;44.10;;;;;;5091973;28;20073;-59
2022/06/01 05:27:43;;;;;;;2.97;0.88;;;20.70;44.10;;;;;;5091791;28;20103;-60
2022/06/01 05:30:09;;;;;;;2.00;0.85;;;20.60;44.10;;;;;;5074908;28;20020;-59
2022/06/01 05:32:35;;;;;;;2.55;0.82;;;20.60;44.10;;;;;;5093829;28;20024;-59
2022/06/01 05:35:01;;;;;;;1.73;0.98;;;20.60;44.70;;;;;;5095647;28;20393;-59
2022/06/01 05:37:27;;;;;;;2.50;1.48;;;20.60;44.20;;;;;;5096676;28;20026;-59
2022/06/01 05:39:53;;;;;;;1.70;1.10;;;20.60;44.20;;;;;;5078663;28;20009;-59
2022/06/01 05:42:19;;;;;;;1.73;0.90;;;20.60;44.20;;;;;;5095479;28;20024;-59
2022/06/01 05:44:45;;;;;;;2.83;0.85;;;20.70;44.20;;;;;;5096985;28;20030;-59
2022/06/01 05:47:11;;;;;;;1.90;0.98;;;20.60;44.20;;;;;;5095502;28;20141;-59
2022/06/01 05:49:37;;;;;;;1.58;0.90;;;20.70;44.20;;;;;;5096334;28;20018;-59
2022/06/01 05:52:03;;;;;;;2.55;0.82;;;20.70;44.10;;;;;;5096465;28;20016;-59
2022/06/01 05:54:29;;;;;;;4.13;1.27;;;20.80;44.00;;;;;;5096194;28;20103;-59
2022/06/01 05:56:56;;;;;;;2.85;1.00;;;20.80;43.90;;;;;;5095966;28;20028;-58
2022/06/01 05:59:21;;;;;;;2.42;1.02;;;20.80;43.90;;;;;;5094713;28;20027;-59
2022/06/01 06:01:49;;;;;;;3.35;0.73;;;20.90;43.80;;;;;;5095671;28;20012;-60
2022/06/01 06:04:16;;;;;;;1.77;1.00;;;20.90;43.70;;;;;;5096134;28;20012;-60
2022/06/01 06:06:43;;;;;;;1.83;0.90;;;21.00;43.70;;;;;;5097672;28;20137;-58
2022/06/01 06:09:09;;;;;;;2.40;0.98;;;21.00;43.70;;;;;;5062617;28;20060;-61
2022/06/01 06:11:37;;;;;;;3.35;0.82;;;21.10;43.70;;;;;;5096451;28;20012;-60
2022/06/01 06:14:04;;;;;;;1.70;0.88;;;21.10;44.10;;;;;;5095546;28;20024;-60
2022/06/01 06:16:33;;;;;;;4.97;1.10;;;21.20;43.50;;;;;;5096320;28;20030;-58
2022/06/01 06:18:59;;;;;;;2.95;1.25;;;21.20;43.40;;;;;;5095857;28;20024;-59
2022/06/01 06:21:26;;;;;;;4.18;1.15;;;21.20;43.40;;;;;;5074762;28;20035;-60
2022/06/01 06:23:53;;;;;;;13.77;1.52;;;21.30;43.40;;;;;;5091811;28;20026;-58
2022/06/01 06:26:20;;;;;;;10.35;1.58;;;21.30;45.60;;;;;;5092245;28;20051;-58
2022/06/01 06:28:47;;;;;;;14.43;2.92;;;21.30;46.50;;;;;;5094196;28;20095;-58
2022/06/01 06:31:13;;;;;;;44.22;3.47;;;21.50;47.60;;;;;;5075961;28;20035;-59
2022/06/01 06:33:40;;;;;;;16.70;2.65;;;21.80;48.20;;;;;;5093874;28;20023;-59
2022/06/01 06:36:06;;;;;;;19.25;2.33;;;22.10;48.40;;;;;;5093975;28;20143;-61
2022/06/01 06:38:34;;;;;;;19.13;2.60;;;22.20;48.70;;;;;;5094536;28;20012;-58
2022/06/01 06:41:00;;;;;;;19.83;2.60;;;22.40;49.70;;;;;;5093030;28;20439;-59
2022/06/01 06:43:26;;;;;;;10.60;2.45;;;22.40;49.90;;;;;;5092156;28;20474;-59
2022/06/01 06:45:56;;;;;;;16.77;2.30;;;22.40;49.80;;;;;;5091654;28;20027;-59
2022/06/01 06:48:22;;;;;;;14.98;2.53;;;22.40;49.40;;;;;;5092404;28;20573;-57
2022/06/01 06:50:47;;;;;;;11.23;2.38;;;22.30;49.20;;;;;;5092677;28;20027;-58
2022/06/01 06:53:13;;;;;;;10.52;2.50;;;22.40;49.60;;;;;;5092273;28;20027;-59
2022/06/01 06:55:39;;;;;;;11.95;3.35;;;22.40;49.60;;;;;;5093141;28;20024;-58
2022/06/01 06:58:09;;;;;;;12.48;2.67;;;22.40;49.80;;;;;;5093767;28;20018;-60
2022/06/01 07:00:35;;;;;;;10.38;2.88;;;22.40;49.40;;;;;;5093446;28;20043;-54
2022/06/01 07:03:01;;;;;;;10.68;2.35;;;22.40;49.50;;;;;;5093333;28;20060;-56
2022/06/01 07:08:17;;;;;;;10.98;2.45;;;22.50;49.50;;;;;;5093190;28;20057;-54
2022/06/01 07:10:42;;;;;;;14.55;2.83;;;22.60;49.60;;;;;;5091139;28;20028;-57
2022/06/01 07:13:08;;;;;;;22.60;2.47;;;22.60;50.00;;;;;;5092571;28;20017;-55
2022/06/01 07:15:35;;;;;;;28.25;3.10;;;22.60;49.90;;;;;;5074546;28;20119;-60
2022/06/01 07:18:03;;;;;;;10.38;3.10;;;22.20;48.80;;;;;;5091686;28;20020;-58
2022/06/01 07:20:30;;;;;;;10.88;3.38;;;21.00;49.60;;;;;;5094164;28;20057;-57
2022/06/01 07:22:56;;;;;;;8.35;3.10;;;20.60;51.20;;;;;;5091290;28;20410;-55
2022/06/01 07:25:22;;;;;;;9.43;2.72;;;20.30;51.90;;;;;;5093052;28;20028;-54
2022/06/01 07:27:50;;;;;;;12.70;3.30;;;20.40;52.10;;;;;;5091933;28;20020;-54
2022/06/01 07:30:16;;;;;;;12.27;3.67;;;20.10;52.70;;;;;;5092137;28;20502;-55
2022/06/01 07:32:46;;;;;;;7.93;3.20;;;19.90;52.80;;;;;;5091947;28;20008;-55
2022/06/01 07:35:12;;;;;;;11.45;3.10;;;19.20;55.60;;;;;;5093450;28;20016;-54
2022/06/01 07:43:06;;;;;;;10.63;3.22;;;19.70;54.30;;;;;;5093800;28;20398;-51
2022/06/01 07:45:37;;;;;;;7.25;2.55;;;19.70;54.40;;;;;;5091650;28;20020;-53
2022/06/01 07:48:04;;;;;;;7.90;3.00;;;19.50;55.00;;;;;;5093279;28;20103;-52
2022/06/01 07:50:29;;;;;;;8.68;3.85;;;19.20;55.10;;;;;;5092731;28;20020;-50
2022/06/01 07:52:55;;;;;;;11.25;3.20;;;19.00;54.80;;;;;;5091139;28;20470;-52
2022/06/01 07:55:21;;;;;;;10.82;3.00;;;19.10;55.80;;;;;;5092259;28;20039;-50
2022/06/01 07:57:49;;;;;;;7.38;2.60;;;19.30;55.60;;;;;;5090628;28;20055;-54
2022/06/01 08:00:15;;;;;;;14.18;2.80;;;19.40;55.60;;;;;;5093030;28;20038;-55
2022/06/01 08:02:41;;;;;;;7.55;2.92;;;19.70;54.90;;;;;;5093603;28;20053;-55
2022/06/01 08:05:08;;;;;;;9.70;2.30;;;20.00;53.80;;;;;;5092933;28;20020;-55
2022/06/01 08:07:34;;;;;;;7.38;2.35;;;20.30;52.80;;;;;;5092006;28;20012;-55
2022/06/01 08:10:00;;;;;;;9.52;1.90;;;20.50;52.00;;;;;;5074292;28;20518;-55
2022/06/01 08:15:11;;;;;;;10.20;2.10;;;20.80;50.90;;;;;;5091413;28;20156;-58
2022/06/01 08:17:37;;;;;;;7.57;2.70;;;21.00;50.40;;;;;;5090935;28;20023;-52
2022/06/01 08:20:03;;;;;;;9.68;3.42;;;20.80;49.40;;;;;;5091434;28;20020;-53
2022/06/01 08:22:29;;;;;;;8.25;2.65;;;20.40;49.80;;;;;;5091419;28;20195;-58
2022/06/01 08:24:55;;;;;;;10.23;3.13;;;20.30;51.80;;;;;;5091394;28;20498;-56
2022/06/01 08:27:20;;;;;;;13.25;2.67;;;20.60;52.80;;;;;;5092227;28;20019;-56
2022/06/01 08:29:46;;;;;;;6.68;2.30;;;21.00;52.60;;;;;;5092314;28;20064;-57
2022/06/01 08:32:12;;;;;;;9.60;2.30;;;21.30;52.40;;;;;;5090688;28;20020;-57
2022/06/01 08:34:38;;;;;;;8.60;2.00;;;21.70;52.30;;;;;;5091877;28;20020;-58
2022/06/01 08:37:04;;;;;;;9.73;2.35;;;21.90;52.30;;;;;;5092164;28;20024;-56
2022/06/01 08:39:30;;;;;;;8.57;1.65;;;22.10;52.10;;;;;;5092150;28;20466;-58
2022/06/01 08:41:58;;;;;;;7.90;2.10;;;22.30;52.10;;;;;;5090237;28;20012;-54
2022/06/01 08:44:37;;;;;;;12.35;2.00;;;22.50;52.20;;;;;;5090474;28;20012;-54
2022/06/01 08:47:05;;;;;;;9.65;1.90;;;22.70;51.80;;;;;;5091819;28;20117;-56
2022/06/01 08:49:33;;;;;;;10.43;1.77;;;22.80;51.80;;;;;;5092407;28;20146;-55
2022/06/01 08:51:59;;;;;;;12.02;2.00;;;22.90;51.90;;;;;;5075456;28;20031;-57
2022/06/01 08:54:24;;;;;;;3.60;1.52;;;23.00;52.10;;;;;;5091609;28;20012;-55
2022/06/01 08:57:15;;;;;;;14.18;1.95;;;23.00;51.70;;;;;;5092597;28;20134;-57
2022/06/01 09:00:06;;;;;;;5.93;1.77;;;23.10;51.90;;;;;;5091114;28;20020;-54
2022/06/01 09:03:00;;;;;;;11.77;1.85;;;23.20;51.90;;;;;;5091161;28;20017;-55
2022/06/01 09:05:56;;;;;;;6.65;1.40;;;23.30;51.80;;;;;;5090712;28;20073;-56
2022/06/01 09:08:21;;;;;;;13.07;2.17;;;23.40;52.10;;;;;;5093940;28;20016;-57
2022/06/01 09:11:07;;;;;;;14.52;2.17;;;23.40;51.80;;;;;;5094918;28;20108;-55
2022/06/01 09:13:42;;;;;;;11.68;2.20;;;23.00;50.00;;;;;;5095688;28;20031;-54
2022/06/01 09:16:17;;;;;;;11.05;3.03;;;22.50;48.60;;;;;;5095182;28;20024;-55
2022/06/01 09:18:48;;;;;;;13.07;2.63;;;22.30;48.40;;;;;;5095762;28;20054;-55
2022/06/01 09:24:05;;;;;;;;;;;22.60;48.70;;;;;;5096389;28;20054;-58
2022/06/01 09:26:31;;;;;;;9.25;1.83;;;22.80;48.50;;;;;;5095687;28;19912;-58
2022/06/01 09:29:00;;;;;;;14.50;2.42;;;22.90;48.20;;;;;;5095534;28;20028;-55
2022/06/01 09:31:29;;;;;;;16.83;2.67;;;23.10;48.90;;;;;;5095853;28;20023;-54
2022/06/01 09:34:15;;;;;;;16.20;2.10;;;23.10;48.30;;;;;;5095929;28;20012;-53
2022/06/01 09:37:09;;;;;;;11.45;2.22;;;23.20;48.40;;;;;;5094836;28;20123;-53
2022/06/01 09:39:36;;;;;;;10.27;2.05;;;23.30;48.20;;;;;;5095368;28;20016;-55
2022/06/01 09:42:26;;;;;;;10.05;1.77;;;23.30;48.60;;;;;;5093820;28;20115;-54
2022/06/01 09:44:54;;;;;;;6.57;1.80;;;23.40;48.00;;;;;;5086811;28;20024;-49
2022/06/01 09:47:26;;;;;;;11.32;2.17;;;23.40;48.10;;;;;;5095044;28;20008;-58
2022/06/01 09:49:54;;;;;;;16.15;2.40;;;23.50;48.20;;;;;;5095193;28;20020;-55
2022/06/01 09:52:26;;;;;;;11.57;2.05;;;23.50;47.80;;;;;;5077256;28;20012;-54
2022/06/01 09:54:55;;;;;;;11.85;2.13;;;23.50;48.00;;;;;;5093904;28;20023;-52
2022/06/01 09:57:32;;;;;;;23.63;2.13;;;23.50;47.80;;;;;;5092671;28;20088;-55
2022/06/01 10:08:21;;;;;;;18.88;2.40;;;23.10;48.20;;;;;;5096245;28;20120;-58
2022/06/01 10:11:00;;;;;;;13.82;2.10;;;23.10;48.10;;;;;;5095564;28;20020;-57
2022/06/01 10:13:28;;;;;;;14.02;2.40;;;23.00;48.10;;;;;;5096570;28;20020;-58
2022/06/01 10:15:56;;;;;;;15.57;2.60;;;22.90;48.10;;;;;;5096128;28;20032;-55
2022/06/01 10:18:26;;;;;;;12.85;2.60;;;22.90;48.10;;;;;;5096036;28;20024;-58
2022/06/01 10:21:03;;;;;;;12.50;2.85;;;22.90;48.20;;;;;;5096479;28;20016;-62
2022/06/01 10:24:16;;;;;;;18.70;2.97;;;22.80;48.50;;;;;;5096540;28;20024;-58
2022/06/01 10:26:47;;;;;;;17.70;2.05;;;22.80;48.00;;;;;;5053971;28;20052;-56
2022/06/01 10:29:17;;;;;;;14.02;2.15;;;22.80;47.90;;;;;;5037685;28;20056;-58
2022/06/01 10:31:54;;;;;;;9.88;1.73;;;22.70;47.80;;;;;;5038059;28;20025;-58
2022/06/01 10:34:31;;;;;;;10.68;1.77;;;22.70;47.80;;;;;;5054506;28;20025;-57
2022/06/01 10:37:15;;;;;;;7.80;1.88;;;22.60;47.80;;;;;;5054240;28;20029;-57
2022/06/01 10:39:51;;;;;;;11.10;1.83;;;22.60;47.80;;;;;;5038588;28;20075;-57
2022/06/01 10:42:24;;;;;;;10.05;2.08;;;22.50;47.80;;;;;;5055624;28;20021;-57
2022/06/01 10:44:57;;;;;;;10.10;2.22;;;22.50;47.90;;;;;;5039436;28;20032;-57
2022/06/01 10:47:48;;;;;;;8.55;1.85;;;22.50;47.90;;;;;;5057056;28;20017;-57
2022/06/01 10:50:19;;;;;;;5.75;1.63;;;22.50;47.90;;;;;;5038838;28;20029;-58
2022/06/01 10:52:48;;;;;;;7.68;1.63;;;22.50;47.80;;;;;;5039184;28;20018;-57
2022/06/01 10:55:14;;;;;;;7.57;1.95;;;22.40;47.70;;;;;;5055785;28;20120;-55
2022/06/01 10:57:41;;;;;;;12.77;1.90;;;22.50;47.70;;;;;;5081289;28;20063;-54
2022/06/01 11:00:24;;;;;;;8.25;1.90;;;22.50;47.70;;;;;;5096626;28;20016;-55
2022/06/01 11:03:29;;;;;;;6.07;1.33;;;22.50;47.70;;;;;;5094826;28;20012;-56
2022/06/01 11:06:20;;;;;;;8.63;1.80;;;22.50;47.50;;;;;;5094449;28;20047;-56
2022/06/01 11:09:10;;;;;;;7.22;1.85;;;22.50;47.50;;;;;;5093670;28;20115;-54
2022/06/01 11:11:54;;;;;;;6.85;1.88;;;22.50;47.60;;;;;;5094703;28;20525;-53
2022/06/01 11:14:33;;;;;;;4.65;1.33;;;22.50;47.50;;;;;;5093822;28;20085;-54
2022/06/01 11:17:04;;;;;;;7.32;1.63;;;22.40;47.30;;;;;;5093705;28;20111;-55
2022/06/01 11:19:53;;;;;;;9.48;1.48;;;22.40;47.30;;;;;;5093405;28;20012;-55
2022/06/01 11:22:34;;;;;;;6.70;1.50;;;22.40;47.20;;;;;;5095582;28;20080;-53
2022/06/01 11:25:05;;;;;;;9.40;1.88;;;22.40;47.10;;;;;;5094962;28;20032;-55
2022/06/01 11:27:45;;;;;;;10.30;1.67;;;22.50;47.20;;;;;;5094296;28;20102;-54
2022/06/01 11:30:21;;;;;;;8.23;1.63;;;22.40;47.10;;;;;;5096083;28;20015;-55
2022/06/01 11:32:58;;;;;;;5.28;1.33;;;22.40;47.00;;;;;;5097327;28;20067;-54
2022/06/01 11:35:33;;;;;;;4.28;1.48;;;22.40;47.40;;;;;;5095261;28;20049;-57
2022/06/01 11:38:10;;;;;;;6.10;1.40;;;22.40;46.70;;;;;;5096136;28;20020;-61
2022/06/01 11:40:41;;;;;;;4.00;1.20;;;22.40;46.60;;;;;;5094750;28;20035;-56
2022/06/01 11:43:16;;;;;;;3.70;1.27;;;22.40;46.40;;;;;;5096812;28;20016;-56
2022/06/01 11:45:44;;;;;;;4.53;1.05;;;22.40;46.30;;;;;;5096412;28;20020;-55
2022/06/01 11:48:12;;;;;;;5.10;1.25;;;22.40;45.90;;;;;;5096291;28;20012;-57
2022/06/01 11:50:48;;;;;;;4.38;1.45;;;22.40;45.70;;;;;;5094655;28;20022;-54
2022/06/01 11:53:41;;;;;;;5.43;1.10;;;22.40;45.60;;;;;;5093525;28;20013;-55
2022/06/01 11:56:45;;;;;;;2.03;0.80;;;22.40;45.60;;;;;;5079102;28;20036;-54
2022/06/01 11:59:15;;;;;;;2.92;1.15;;;22.30;45.50;;;;;;5073602;28;20051;-55
2022/06/01 12:02:18;;;;;;;4.18;1.23;;;22.30;45.60;;;;;;5094838;28;20020;-56
2022/06/01 12:05:03;;;;;;;7.97;1.10;;;22.30;45.60;;;;;;5096129;28;20024;-57
2022/06/01 12:07:34;;;;;;;2.28;1.00;;;22.20;45.60;;;;;;5095906;28;20012;-58
2022/06/01 12:10:01;;;;;;;;;;;22.30;45.50;;;;;;5094623;28;20099;-58
2022/06/01 12:12:44;;;;;;;3.55;1.15;;;22.20;45.50;;;;;;5095319;28;19944;-54
2022/06/01 12:15:38;;;;;;;7.50;1.30;;;22.30;45.60;;;;;;5095319;28;20012;-56
2022/06/01 12:18:14;;;;;;;7.90;1.40;;;22.20;45.50;;;;;;5095439;28;20378;-57
2022/06/01 12:20:40;;;;;;;2.60;0.98;;;22.20;45.30;;;;;;5095528;28;20016;-54
2022/06/01 12:28:47;;;;;;;3.30;1.17;;;22.30;45.10;;;;;;5096259;28;20502;-55
2022/06/01 12:31:27;;;;;;;3.67;1.27;;;22.30;45.10;;;;;;5096176;28;20150;-56
2022/06/01 12:34:11;;;;;;;2.60;1.13;;;22.30;45.10;;;;;;5095091;28;20012;-57
2022/06/01 12:36:57;;;;;;;3.13;0.95;;;22.30;45.00;;;;;;5094321;28;20055;-55
2022/06/01 12:39:31;;;;;;;4.38;1.10;;;22.40;44.80;;;;;;5077117;28;20008;-54
2022/06/01 12:42:04;;;;;;;5.25;1.10;;;22.30;44.60;;;;;;5092933;28;20016;-52
2022/06/01 12:44:31;;;;;;;5.28;1.30;;;22.30;44.90;;;;;;5076975;28;20043;-50
2022/06/01 12:46:58;;;;;;;10.43;1.13;;;22.30;45.00;;;;;;5093146;28;20058;-53
2022/06/01 12:49:36;;;;;;;3.83;1.00;;;22.30;45.10;;;;;;5094679;28;20017;-55
2022/06/01 12:52:11;;;;;;;3.53;0.93;;;22.30;45.00;;;;;;5094807;28;20020;-52
2022/06/01 12:54:39;;;;;;;2.47;0.90;;;22.20;45.10;;;;;;5094773;28;20008;-52
2022/06/01 12:57:06;;;;;;;5.63;0.98;;;22.20;45.20;;;;;;5094367;28;20039;-51
2022/06/01 12:59:39;;;;;;;4.45;1.10;;;22.10;45.20;;;;;;5095230;28;20011;-56
2022/06/01 13:02:07;;;;;;;3.22;1.00;;;22.20;45.30;;;;;;5095502;28;20015;-52
2022/06/01 13:04:33;;;;;;;4.43;1.08;;;22.10;45.30;;;;;;5095596;28;20016;-52
2022/06/01 13:06:59;;;;;;;3.22;0.90;;;22.10;45.30;;;;;;5095166;28;20024;-53
2022/06/01 13:09:30;;;;;;;3.92;1.17;;;22.10;45.20;;;;;;5076446;28;20467;-56
2022/06/01 13:12:15;;;;;;;2.70;1.05;;;22.10;45.20;;;;;;5094197;28;20024;-52
2022/06/01 13:14:41;;;;;;;3.72;1.00;;;22.20;45.30;;;;;;5094159;28;20028;-54
2022/06/01 13:17:16;;;;;;;2.05;0.90;;;22.20;45.10;;;;;;5094543;28;20039;-50
2022/06/01 13:19:43;;;;;;;6.10;1.08;;;22.20;45.10;;;;;;5094705;28;20012;-52
2022/06/01 13:22:19;;;;;;;4.43;1.02;;;22.20;45.00;;;;;;5094178;28;20131;-51
2022/06/01 13:24:56;;;;;;;3.25;0.98;;;22.20;44.90;;;;;;5093700;28;20087;-55
2022/06/01 13:27:22;;;;;;;3.47;1.00;;;22.30;44.20;;;;;;5094154;28;20099;-53
2022/06/01 13:29:52;;;;;;;2.25;0.95;;;22.30;44.40;;;;;;5093553;28;20031;-53
2022/06/01 13:32:18;;;;;;;3.00;0.90;;;22.30;44.00;;;;;;5077066;28;20111;-53
2022/06/01 13:34:46;;;;;;;3.17;1.05;;;22.30;44.00;;;;;;5092659;28;20039;-54
2022/06/01 13:37:23;;;;;;;1.67;0.85;;;22.30;44.20;;;;;;5093814;28;20020;-54